sensor_id;sensor_type;location;lat;lon;timestamp;temperature;humidity
19862;DHT22;10093;48.148;8.542;2022-11-02T00:01:00;5.20;99.90
19862;DHT22;10093;48.148;8.542;2022-11-02T00:03:27;5.00;99.90
19862;DHT22;10093;48.148;8.542;2022-11-02T00:05:53;4.90;99.90
19862;DHT22;10093;48.148;8.542;2022-11-02T00:08:18;4.90;99.90
19862;DHT22;10093;48.148;8.542;2022-11-02T00:10:44;4.70;99.90
19862;DHT22;10093;48.148;8.542;2022-11-02T00:13:09;4.50;99.90
19862;DHT22;10093;48.148;8.542;2022-11-02T00:15:36;4.60;99.90
19862;DHT22;10093;48.148;8.542;2022-11-02T00:18:08;4.50;99.90
19862;DHT22;10093;48.148;8.542;2022-11-02T00:20:36;4.40;99.90
19862;DHT22;10093;48.148;8.542;2022-11-02T00:23:04;4.30;99.90
19862;DHT22;10093;48.148;8.542;2022-11-02T00:25:31;4.10;99.90
19862;DHT22;10093;48.148;8.542;2022-11-02T00:27:58;3.90;99.90
19862;DHT22;10093;48.148;8.542;2022-11-02T00:30:23;3.80;99.90
19862;DHT22;10093;48.148;8.542;2022-11-02T00:32:50;3.70;99.90
19862;DHT22;10093;48.148;8.542;2022-11-02T00:35:15;3.90;99.90
19862;DHT22;10093;48.148;8.542;2022-11-02T00:37:41;4.20;99.90
19862;DHT22;10093;48.148;8.542;2022-11-02T00:40:07;4.10;99.90
19862;DHT22;10093;48.148;8.542;2022-11-02T00:42:33;4.30;99.90
19862;DHT22;10093;48.148;8.542;2022-11-02T00:44:58;4.50;99.90
19862;DHT22;10093;48.148;8.542;2022-11-02T00:47:24;4.60;99.90
19862;DHT22;10093;48.148;8.542;2022-11-02T00:49:49;4.50;99.90
19862;DHT22;10093;48.148;8.542;2022-11-02T00:52:15;4.40;99.90
19862;DHT22;10093;48.148;8.542;2022-11-02T00:54:41;4.30;99.90
19862;DHT22;10093;48.148;8.542;2022-11-02T00:57:06;4.20;99.90
19862;DHT22;10093;48.148;8.542;2022-11-02T00:59:32;4.30;99.90
19862;DHT22;10093;48.148;8.542;2022-11-02T01:01:57;4.60;99.90
19862;DHT22;10093;48.148;8.542;2022-11-02T01:04:23;4.50;99.90
19862;DHT22;10093;48.148;8.542;2022-11-02T01:06:48;4.40;99.90
19862;DHT22;10093;48.148;8.542;2022-11-02T01:09:15;4.30;99.90
19862;DHT22;10093;48.148;8.542;2022-11-02T01:11:41;4.10;99.90
19862;DHT22;10093;48.148;8.542;2022-11-02T01:14:08;4.20;99.90
19862;DHT22;10093;48.148;8.542;2022-11-02T01:16:34;4.20;99.90
19862;DHT22;10093;48.148;8.542;2022-11-02T01:18:59;4.10;99.90
19862;DHT22;10093;48.148;8.542;2022-11-02T01:21:25;4.00;99.90
19862;DHT22;10093;48.148;8.542;2022-11-02T01:23:51;4.00;99.90
19862;DHT22;10093;48.148;8.542;2022-11-02T01:26:17;4.10;99.90
19862;DHT22;10093;48.148;8.542;2022-11-02T01:28:43;4.20;99.90
19862;DHT22;10093;48.148;8.542;2022-11-02T01:31:10;4.20;99.90
19862;DHT22;10093;48.148;8.542;2022-11-02T01:33:36;4.60;99.90
19862;DHT22;10093;48.148;8.542;2022-11-02T01:36:04;4.70;99.90
19862;DHT22;10093;48.148;8.542;2022-11-02T01:38:31;4.90;99.90
19862;DHT22;10093;48.148;8.542;2022-11-02T01:40:56;4.70;99.90
19862;DHT22;10093;48.148;8.542;2022-11-02T01:43:25;4.90;99.90
19862;DHT22;10093;48.148;8.542;2022-11-02T01:51:18;4.90;99.90
19862;DHT22;10093;48.148;8.542;2022-11-02T01:53:47;4.80;99.90
19862;DHT22;10093;48.148;8.542;2022-11-02T01:56:16;5.00;99.90
19862;DHT22;10093;48.148;8.542;2022-11-02T01:58:44;5.10;99.90
19862;DHT22;10093;48.148;8.542;2022-11-02T02:01:11;5.10;99.90
19862;DHT22;10093;48.148;8.542;2022-11-02T02:03:37;5.10;99.90
19862;DHT22;10093;48.148;8.542;2022-11-02T02:06:14;5.00;99.90
19862;DHT22;10093;48.148;8.542;2022-11-02T02:08:45;5.00;99.90
19862;DHT22;10093;48.148;8.542;2022-11-02T02:11:35;5.10;99.90
19862;DHT22;10093;48.148;8.542;2022-11-02T02:14:08;5.00;99.90
19862;DHT22;10093;48.148;8.542;2022-11-02T02:17:10;4.90;99.90
19862;DHT22;10093;48.148;8.542;2022-11-02T02:20:03;5.00;99.90
19862;DHT22;10093;48.148;8.542;2022-11-02T02:25:20;4.90;99.90
19862;DHT22;10093;48.148;8.542;2022-11-02T02:30:39;4.90;99.90
19862;DHT22;10093;48.148;8.542;2022-11-02T02:33:14;4.60;99.90
19862;DHT22;10093;48.148;8.542;2022-11-02T02:35:45;4.60;99.90
19862;DHT22;10093;48.148;8.542;2022-11-02T02:38:32;4.40;99.90
19862;DHT22;10093;48.148;8.542;2022-11-02T02:41:08;4.20;99.90
19862;DHT22;10093;48.148;8.542;2022-11-02T02:43:48;4.10;99.90
19862;DHT22;10093;48.148;8.542;2022-11-02T02:46:20;4.00;99.90
19862;DHT22;10093;48.148;8.542;2022-11-02T02:48:47;4.10;99.90
19862;DHT22;10093;48.148;8.542;2022-11-02T02:51:20;4.10;99.90
19862;DHT22;10093;48.148;8.542;2022-11-02T02:53:52;4.30;99.90
19862;DHT22;10093;48.148;8.542;2022-11-02T02:56:24;4.20;99.90
19862;DHT22;10093;48.148;8.542;2022-11-02T02:58:59;4.30;99.90
19862;DHT22;10093;48.148;8.542;2022-11-02T03:01:26;4.30;99.90
19862;DHT22;10093;48.148;8.542;2022-11-02T03:03:52;4.20;99.90
19862;DHT22;10093;48.148;8.542;2022-11-02T03:06:29;4.50;99.90
19862;DHT22;10093;48.148;8.542;2022-11-02T03:15:09;4.60;99.90
19862;DHT22;10093;48.148;8.542;2022-11-02T03:20:21;4.90;99.90
19862;DHT22;10093;48.148;8.542;2022-11-02T03:23:12;4.80;99.90
19862;DHT22;10093;48.148;8.542;2022-11-02T03:31:09;4.40;99.90
19862;DHT22;10093;48.148;8.542;2022-11-02T03:33:37;4.50;99.90
19862;DHT22;10093;48.148;8.542;2022-11-02T03:36:11;4.30;99.90
19862;DHT22;10093;48.148;8.542;2022-11-02T03:41:08;4.00;99.90
19862;DHT22;10093;48.148;8.542;2022-11-02T03:43:35;4.10;99.90
19862;DHT22;10093;48.148;8.542;2022-11-02T03:46:05;4.10;99.90
19862;DHT22;10093;48.148;8.542;2022-11-02T03:48:37;4.30;99.90
19862;DHT22;10093;48.148;8.542;2022-11-02T03:51:08;4.60;99.90
19862;DHT22;10093;48.148;8.542;2022-11-02T03:53:46;4.40;99.90
19862;DHT22;10093;48.148;8.542;2022-11-02T03:56:38;4.60;99.90
19862;DHT22;10093;48.148;8.542;2022-11-02T03:59:06;4.40;99.90
19862;DHT22;10093;48.148;8.542;2022-11-02T04:01:36;4.50;99.90
19862;DHT22;10093;48.148;8.542;2022-11-02T04:04:03;4.30;99.90
19862;DHT22;10093;48.148;8.542;2022-11-02T04:06:29;4.40;99.90
19862;DHT22;10093;48.148;8.542;2022-11-02T04:08:55;4.20;99.90
19862;DHT22;10093;48.148;8.542;2022-11-02T04:11:20;4.10;99.90
19862;DHT22;10093;48.148;8.542;2022-11-02T04:14:05;3.90;99.90
19862;DHT22;10093;48.148;8.542;2022-11-02T04:16:50;4.30;99.90
19862;DHT22;10093;48.148;8.542;2022-11-02T04:19:35;4.50;99.90
19862;DHT22;10093;48.148;8.542;2022-11-02T04:22:01;4.50;99.90
19862;DHT22;10093;48.148;8.542;2022-11-02T04:24:45;4.30;99.90
19862;DHT22;10093;48.148;8.542;2022-11-02T04:27:31;4.60;99.90
19862;DHT22;10093;48.148;8.542;2022-11-02T04:29:57;4.50;99.90
19862;DHT22;10093;48.148;8.542;2022-11-02T04:32:22;4.50;99.90
19862;DHT22;10093;48.148;8.542;2022-11-02T04:35:07;4.50;99.90
19862;DHT22;10093;48.148;8.542;2022-11-02T04:37:43;4.70;99.90
19862;DHT22;10093;48.148;8.542;2022-11-02T04:40:27;4.50;99.90
19862;DHT22;10093;48.148;8.542;2022-11-02T04:42:53;4.40;99.90
19862;DHT22;10093;48.148;8.542;2022-11-02T04:45:19;4.50;99.90
19862;DHT22;10093;48.148;8.542;2022-11-02T04:47:44;4.70;99.90
19862;DHT22;10093;48.148;8.542;2022-11-02T04:50:10;4.70;99.90
19862;DHT22;10093;48.148;8.542;2022-11-02T04:52:37;5.00;99.90
19862;DHT22;10093;48.148;8.542;2022-11-02T04:55:03;5.20;99.90
19862;DHT22;10093;48.148;8.542;2022-11-02T04:57:28;5.20;99.90
19862;DHT22;10093;48.148;8.542;2022-11-02T04:59:54;5.10;99.90
19862;DHT22;10093;48.148;8.542;2022-11-02T05:02:20;5.00;99.90
19862;DHT22;10093;48.148;8.542;2022-11-02T05:04:45;5.10;99.90
19862;DHT22;10093;48.148;8.542;2022-11-02T05:07:11;5.10;99.90
19862;DHT22;10093;48.148;8.542;2022-11-02T05:09:37;5.00;99.90
19862;DHT22;10093;48.148;8.542;2022-11-02T05:12:03;5.00;99.90
19862;DHT22;10093;48.148;8.542;2022-11-02T05:14:32;4.80;99.90
19862;DHT22;10093;48.148;8.542;2022-11-02T05:16:57;4.70;99.90
19862;DHT22;10093;48.148;8.542;2022-11-02T05:19:23;4.70;99.90
19862;DHT22;10093;48.148;8.542;2022-11-02T05:21:49;4.80;99.90
19862;DHT22;10093;48.148;8.542;2022-11-02T05:24:15;5.00;99.90
19862;DHT22;10093;48.148;8.542;2022-11-02T05:26:40;5.10;99.90
19862;DHT22;10093;48.148;8.542;2022-11-02T05:29:09;5.00;99.90
19862;DHT22;10093;48.148;8.542;2022-11-02T05:31:35;5.00;99.90
19862;DHT22;10093;48.148;8.542;2022-11-02T05:34:00;4.90;99.90
19862;DHT22;10093;48.148;8.542;2022-11-02T05:36:26;4.90;99.90
19862;DHT22;10093;48.148;8.542;2022-11-02T05:38:54;4.80;99.90
19862;DHT22;10093;48.148;8.542;2022-11-02T05:41:21;4.80;99.90
19862;DHT22;10093;48.148;8.542;2022-11-02T05:43:47;4.50;99.90
19862;DHT22;10093;48.148;8.542;2022-11-02T05:46:12;4.70;99.90
19862;DHT22;10093;48.148;8.542;2022-11-02T05:48:41;4.70;99.90
19862;DHT22;10093;48.148;8.542;2022-11-02T05:51:08;4.60;99.90
19862;DHT22;10093;48.148;8.542;2022-11-02T05:53:33;4.50;99.90
19862;DHT22;10093;48.148;8.542;2022-11-02T05:56:04;4.40;99.90
19862;DHT22;10093;48.148;8.542;2022-11-02T05:58:30;4.30;99.90
19862;DHT22;10093;48.148;8.542;2022-11-02T06:01:00;4.30;99.90
19862;DHT22;10093;48.148;8.542;2022-11-02T06:03:26;4.30;99.90
19862;DHT22;10093;48.148;8.542;2022-11-02T06:05:57;4.40;99.90
19862;DHT22;10093;48.148;8.542;2022-11-02T06:08:22;4.30;99.90
19862;DHT22;10093;48.148;8.542;2022-11-02T06:10:48;4.40;99.90
19862;DHT22;10093;48.148;8.542;2022-11-02T06:13:14;4.40;99.90
19862;DHT22;10093;48.148;8.542;2022-11-02T06:15:39;4.40;99.90
19862;DHT22;10093;48.148;8.542;2022-11-02T06:18:05;4.40;99.90
19862;DHT22;10093;48.148;8.542;2022-11-02T06:20:31;4.60;99.90
19862;DHT22;10093;48.148;8.542;2022-11-02T06:22:56;4.60;99.90
19862;DHT22;10093;48.148;8.542;2022-11-02T06:25:23;4.70;99.90
19862;DHT22;10093;48.148;8.542;2022-11-02T06:27:53;5.00;99.90
19862;DHT22;10093;48.148;8.542;2022-11-02T06:30:21;5.00;99.90
19862;DHT22;10093;48.148;8.542;2022-11-02T06:32:48;5.20;99.90
19862;DHT22;10093;48.148;8.542;2022-11-02T06:35:18;5.70;99.90
19862;DHT22;10093;48.148;8.542;2022-11-02T06:37:45;6.10;99.90
19862;DHT22;10093;48.148;8.542;2022-11-02T06:40:11;6.10;99.90
19862;DHT22;10093;48.148;8.542;2022-11-02T06:42:38;6.30;99.90
19862;DHT22;10093;48.148;8.542;2022-11-02T06:45:03;6.80;99.90
19862;DHT22;10093;48.148;8.542;2022-11-02T06:47:30;7.50;99.90
19862;DHT22;10093;48.148;8.542;2022-11-02T06:49:57;7.60;99.90
19862;DHT22;10093;48.148;8.542;2022-11-02T06:52:22;7.80;99.90
19862;DHT22;10093;48.148;8.542;2022-11-02T06:54:48;8.40;99.90
19862;DHT22;10093;48.148;8.542;2022-11-02T06:57:14;8.50;99.90
19862;DHT22;10093;48.148;8.542;2022-11-02T06:59:39;8.20;99.90
19862;DHT22;10093;48.148;8.542;2022-11-02T07:02:05;8.20;99.90
19862;DHT22;10093;48.148;8.542;2022-11-02T07:04:30;8.30;99.90
19862;DHT22;10093;48.148;8.542;2022-11-02T07:06:56;8.30;99.90
19862;DHT22;10093;48.148;8.542;2022-11-02T07:09:21;8.10;99.90
19862;DHT22;10093;48.148;8.542;2022-11-02T07:11:47;8.10;99.90
19862;DHT22;10093;48.148;8.542;2022-11-02T07:14:13;8.40;99.90
19862;DHT22;10093;48.148;8.542;2022-11-02T07:16:38;8.70;99.90
19862;DHT22;10093;48.148;8.542;2022-11-02T07:19:04;9.40;99.90
19862;DHT22;10093;48.148;8.542;2022-11-02T07:21:29;9.60;99.90
19862;DHT22;10093;48.148;8.542;2022-11-02T07:23:55;9.80;99.90
19862;DHT22;10093;48.148;8.542;2022-11-02T07:26:21;9.70;99.90
19862;DHT22;10093;48.148;8.542;2022-11-02T07:28:46;9.70;99.90
19862;DHT22;10093;48.148;8.542;2022-11-02T07:31:12;10.20;99.90
19862;DHT22;10093;48.148;8.542;2022-11-02T07:33:38;11.00;99.90
19862;DHT22;10093;48.148;8.542;2022-11-02T07:36:03;12.10;99.90
19862;DHT22;10093;48.148;8.542;2022-11-02T07:38:29;12.30;99.90
19862;DHT22;10093;48.148;8.542;2022-11-02T07:40:55;12.30;99.90
19862;DHT22;10093;48.148;8.542;2022-11-02T07:43:21;11.80;99.90
19862;DHT22;10093;48.148;8.542;2022-11-02T07:45:46;12.10;99.90
19862;DHT22;10093;48.148;8.542;2022-11-02T07:48:12;13.10;99.90
19862;DHT22;10093;48.148;8.542;2022-11-02T07:50:37;13.60;99.90
19862;DHT22;10093;48.148;8.542;2022-11-02T07:53:03;13.30;99.90
19862;DHT22;10093;48.148;8.542;2022-11-02T07:55:30;14.20;99.90
19862;DHT22;10093;48.148;8.542;2022-11-02T07:57:58;15.50;99.90
19862;DHT22;10093;48.148;8.542;2022-11-02T08:00:25;16.10;99.90
19862;DHT22;10093;48.148;8.542;2022-11-02T08:02:56;14.70;99.90
19862;DHT22;10093;48.148;8.542;2022-11-02T08:05:22;12.70;99.90
19862;DHT22;10093;48.148;8.542;2022-11-02T08:07:56;11.80;99.90
19862;DHT22;10093;48.148;8.542;2022-11-02T08:10:22;12.80;99.90
19862;DHT22;10093;48.148;8.542;2022-11-02T08:12:48;15.40;99.90
19862;DHT22;10093;48.148;8.542;2022-11-02T08:15:13;17.40;99.90
19862;DHT22;10093;48.148;8.542;2022-11-02T08:17:39;18.80;99.90
19862;DHT22;10093;48.148;8.542;2022-11-02T08:20:05;19.70;99.90
19862;DHT22;10093;48.148;8.542;2022-11-02T08:22:35;20.40;99.90
19862;DHT22;10093;48.148;8.542;2022-11-02T08:25:01;19.10;99.90
19862;DHT22;10093;48.148;8.542;2022-11-02T08:27:27;19.80;99.90
19862;DHT22;10093;48.148;8.542;2022-11-02T08:29:52;19.20;99.90
19862;DHT22;10093;48.148;8.542;2022-11-02T08:32:18;18.40;99.90
19862;DHT22;10093;48.148;8.542;2022-11-02T08:34:43;18.80;99.90
19862;DHT22;10093;48.148;8.542;2022-11-02T08:37:09;18.50;99.90
19862;DHT22;10093;48.148;8.542;2022-11-02T08:39:35;17.70;99.90
19862;DHT22;10093;48.148;8.542;2022-11-02T08:42:01;16.60;99.90
19862;DHT22;10093;48.148;8.542;2022-11-02T08:44:26;15.70;99.90
19862;DHT22;10093;48.148;8.542;2022-11-02T08:46:53;15.10;99.90
19862;DHT22;10093;48.148;8.542;2022-11-02T08:49:19;14.30;99.90
19862;DHT22;10093;48.148;8.542;2022-11-02T08:51:45;13.70;99.90
19862;DHT22;10093;48.148;8.542;2022-11-02T08:54:18;13.90;99.90
19862;DHT22;10093;48.148;8.542;2022-11-02T08:56:43;13.90;99.90
19862;DHT22;10093;48.148;8.542;2022-11-02T08:59:09;14.10;99.90
19862;DHT22;10093;48.148;8.542;2022-11-02T09:01:34;14.20;99.90
19862;DHT22;10093;48.148;8.542;2022-11-02T09:04:00;14.10;99.90
19862;DHT22;10093;48.148;8.542;2022-11-02T09:06:26;13.70;99.90
19862;DHT22;10093;48.148;8.542;2022-11-02T09:08:51;13.60;99.90
19862;DHT22;10093;48.148;8.542;2022-11-02T09:11:17;13.70;99.90
19862;DHT22;10093;48.148;8.542;2022-11-02T09:13:42;14.00;99.90
19862;DHT22;10093;48.148;8.542;2022-11-02T09:16:08;14.30;99.90
19862;DHT22;10093;48.148;8.542;2022-11-02T09:18:34;14.60;99.90
19862;DHT22;10093;48.148;8.542;2022-11-02T09:21:03;15.00;99.90
19862;DHT22;10093;48.148;8.542;2022-11-02T09:23:29;14.70;99.90
19862;DHT22;10093;48.148;8.542;2022-11-02T09:25:57;14.70;99.90
19862;DHT22;10093;48.148;8.542;2022-11-02T09:28:22;14.70;99.90
19862;DHT22;10093;48.148;8.542;2022-11-02T09:30:48;14.70;99.90
19862;DHT22;10093;48.148;8.542;2022-11-02T09:33:13;14.80;99.90
19862;DHT22;10093;48.148;8.542;2022-11-02T09:35:43;14.80;99.90
19862;DHT22;10093;48.148;8.542;2022-11-02T09:38:09;15.50;99.90
19862;DHT22;10093;48.148;8.542;2022-11-02T09:40:53;15.90;99.90
19862;DHT22;10093;48.148;8.542;2022-11-02T09:46:11;15.10;99.90
19862;DHT22;10093;48.148;8.542;2022-11-02T09:48:40;14.90;99.90
19862;DHT22;10093;48.148;8.542;2022-11-02T09:53:55;15.40;99.90
19862;DHT22;10093;48.148;8.542;2022-11-02T09:56:25;15.50;99.90
19862;DHT22;10093;48.148;8.542;2022-11-02T09:59:01;15.70;99.90
19862;DHT22;10093;48.148;8.542;2022-11-02T10:07:02;15.00;99.90
19862;DHT22;10093;48.148;8.542;2022-11-02T10:09:50;14.90;99.90
19862;DHT22;10093;48.148;8.542;2022-11-02T10:12:37;15.00;99.90
19862;DHT22;10093;48.148;8.542;2022-11-02T10:15:16;15.10;99.90
19862;DHT22;10093;48.148;8.542;2022-11-02T10:17:44;15.20;99.90
19862;DHT22;10093;48.148;8.542;2022-11-02T10:20:36;15.20;99.90
19862;DHT22;10093;48.148;8.542;2022-11-02T10:23:06;15.40;99.90
19862;DHT22;10093;48.148;8.542;2022-11-02T10:25:34;15.10;99.90
19862;DHT22;10093;48.148;8.542;2022-11-02T10:28:09;15.00;99.90
19862;DHT22;10093;48.148;8.542;2022-11-02T10:30:36;14.90;99.90
19862;DHT22;10093;48.148;8.542;2022-11-02T10:33:11;14.80;99.90
19862;DHT22;10093;48.148;8.542;2022-11-02T10:35:51;15.10;99.90
19862;DHT22;10093;48.148;8.542;2022-11-02T10:41:31;15.50;99.90
19862;DHT22;10093;48.148;8.542;2022-11-02T10:44:29;15.60;99.90
19862;DHT22;10093;48.148;8.542;2022-11-02T10:52:13;15.70;99.90
19862;DHT22;10093;48.148;8.542;2022-11-02T10:54:40;16.00;99.90
19862;DHT22;10093;48.148;8.542;2022-11-02T10:57:13;15.90;99.90
19862;DHT22;10093;48.148;8.542;2022-11-02T10:59:39;15.90;99.90
19862;DHT22;10093;48.148;8.542;2022-11-02T11:02:12;16.20;99.90
19862;DHT22;10093;48.148;8.542;2022-11-02T11:04:39;16.30;99.90
19862;DHT22;10093;48.148;8.542;2022-11-02T11:07:14;16.50;99.90
19862;DHT22;10093;48.148;8.542;2022-11-02T11:12:36;16.20;99.90
19862;DHT22;10093;48.148;8.542;2022-11-02T11:15:03;16.20;99.90
19862;DHT22;10093;48.148;8.542;2022-11-02T11:17:35;16.40;99.90
19862;DHT22;10093;48.148;8.542;2022-11-02T11:20:03;16.70;99.90
19862;DHT22;10093;48.148;8.542;2022-11-02T11:22:38;17.30;99.90
19862;DHT22;10093;48.148;8.542;2022-11-02T11:25:20;17.90;99.90
19862;DHT22;10093;48.148;8.542;2022-11-02T11:27:51;18.00;99.90
19862;DHT22;10093;48.148;8.542;2022-11-02T11:30:34;17.80;99.90
19862;DHT22;10093;48.148;8.542;2022-11-02T11:33:03;17.60;99.90
19862;DHT22;10093;48.148;8.542;2022-11-02T11:35:32;17.10;99.90
19862;DHT22;10093;48.148;8.542;2022-11-02T11:38:04;16.80;99.90
19862;DHT22;10093;48.148;8.542;2022-11-02T11:40:35;17.30;99.90
19862;DHT22;10093;48.148;8.542;2022-11-02T11:43:02;18.40;99.90
19862;DHT22;10093;48.148;8.542;2022-11-02T11:45:30;19.30;99.90
19862;DHT22;10093;48.148;8.542;2022-11-02T11:47:59;19.60;99.90
19862;DHT22;10093;48.148;8.542;2022-11-02T11:50:26;19.40;99.90
19862;DHT22;10093;48.148;8.542;2022-11-02T11:53:22;18.30;99.90
19862;DHT22;10093;48.148;8.542;2022-11-02T11:55:50;17.70;99.90
19862;DHT22;10093;48.148;8.542;2022-11-02T11:58:26;17.20;99.90
19862;DHT22;10093;48.148;8.542;2022-11-02T12:03:36;17.30;99.90
19862;DHT22;10093;48.148;8.542;2022-11-02T12:08:59;18.10;99.90
19862;DHT22;10093;48.148;8.542;2022-11-02T12:11:41;17.90;99.90
19862;DHT22;10093;48.148;8.542;2022-11-02T12:14:21;17.90;99.90
19862;DHT22;10093;48.148;8.542;2022-11-02T12:30:48;21.20;99.90
19862;DHT22;10093;48.148;8.542;2022-11-02T12:39:18;22.40;99.90
19862;DHT22;10093;48.148;8.542;2022-11-02T12:42:10;22.40;99.90
19862;DHT22;10093;48.148;8.542;2022-11-02T12:50:12;22.30;99.90
19862;DHT22;10093;48.148;8.542;2022-11-02T12:53:00;21.90;99.90
19862;DHT22;10093;48.148;8.542;2022-11-02T12:55:36;21.20;99.90
19862;DHT22;10093;48.148;8.542;2022-11-02T12:58:15;20.90;99.90
19862;DHT22;10093;48.148;8.542;2022-11-02T13:00:43;20.40;99.90
19862;DHT22;10093;48.148;8.542;2022-11-02T13:03:35;21.20;99.90
19862;DHT22;10093;48.148;8.542;2022-11-02T13:06:06;20.70;99.90
19862;DHT22;10093;48.148;8.542;2022-11-02T13:08:43;19.90;99.90
19862;DHT22;10093;48.148;8.542;2022-11-02T13:11:21;20.80;99.90
19862;DHT22;10093;48.148;8.542;2022-11-02T13:13:52;21.60;99.90
19862;DHT22;10093;48.148;8.542;2022-11-02T13:19:21;22.60;99.90
19862;DHT22;10093;48.148;8.542;2022-11-02T13:21:54;21.00;99.90
19862;DHT22;10093;48.148;8.542;2022-11-02T13:24:28;20.60;99.90
19862;DHT22;10093;48.148;8.542;2022-11-02T13:26:58;19.70;99.90
19862;DHT22;10093;48.148;8.542;2022-11-02T13:29:44;19.60;99.90
19862;DHT22;10093;48.148;8.542;2022-11-02T13:32:37;20.70;99.90
19862;DHT22;10093;48.148;8.542;2022-11-02T13:35:19;20.80;99.90
19862;DHT22;10093;48.148;8.542;2022-11-02T13:37:52;21.60;99.90
19862;DHT22;10093;48.148;8.542;2022-11-02T13:40:23;21.40;99.90
19862;DHT22;10093;48.148;8.542;2022-11-02T13:50:30;23.20;99.90
19862;DHT22;10093;48.148;8.542;2022-11-02T13:53:00;24.20;99.90
19862;DHT22;10093;48.148;8.542;2022-11-02T13:55:39;24.10;99.90
19862;DHT22;10093;48.148;8.542;2022-11-02T13:58:12;23.30;99.90
19862;DHT22;10093;48.148;8.542;2022-11-02T14:00:44;22.20;99.90
19862;DHT22;10093;48.148;8.542;2022-11-02T14:03:24;20.90;99.90
19862;DHT22;10093;48.148;8.542;2022-11-02T14:06:00;19.50;99.90
19862;DHT22;10093;48.148;8.542;2022-11-02T14:08:37;18.10;99.90
19862;DHT22;10093;48.148;8.542;2022-11-02T14:19:31;15.70;99.90
19862;DHT22;10093;48.148;8.542;2022-11-02T14:22:14;15.10;99.90
19862;DHT22;10093;48.148;8.542;2022-11-02T14:32:35;14.90;99.90
19862;DHT22;10093;48.148;8.542;2022-11-02T14:48:20;15.30;99.90
19862;DHT22;10093;48.148;8.542;2022-11-02T14:51:01;15.40;99.90
19862;DHT22;10093;48.148;8.542;2022-11-02T14:53:33;15.90;99.90
19862;DHT22;10093;48.148;8.542;2022-11-02T14:56:00;16.40;99.90
19862;DHT22;10093;48.148;8.542;2022-11-02T14:58:47;16.60;99.90
19862;DHT22;10093;48.148;8.542;2022-11-02T15:01:14;16.50;99.90
19862;DHT22;10093;48.148;8.542;2022-11-02T15:03:41;16.10;99.90
19862;DHT22;10093;48.148;8.542;2022-11-02T15:11:56;15.80;99.90
19862;DHT22;10093;48.148;8.542;2022-11-02T15:17:00;15.80;99.90
19862;DHT22;10093;48.148;8.542;2022-11-02T15:19:41;15.60;99.90
19862;DHT22;10093;48.148;8.542;2022-11-02T15:27:50;13.70;99.90
19862;DHT22;10093;48.148;8.542;2022-11-02T15:30:19;13.20;99.90
19862;DHT22;10093;48.148;8.542;2022-11-02T15:33:05;13.20;99.90
19862;DHT22;10093;48.148;8.542;2022-11-02T15:35:34;13.30;99.90
19862;DHT22;10093;48.148;8.542;2022-11-02T15:38:03;13.40;99.90
19862;DHT22;10093;48.148;8.542;2022-11-02T15:40:34;13.30;99.90
19862;DHT22;10093;48.148;8.542;2022-11-02T15:52:00;12.00;99.90
19862;DHT22;10093;48.148;8.542;2022-11-02T15:55:32;12.00;99.90
19862;DHT22;10093;48.148;8.542;2022-11-02T16:00:20;11.60;99.90
19862;DHT22;10093;48.148;8.542;2022-11-02T16:03:05;11.30;99.90
19862;DHT22;10093;48.148;8.542;2022-11-02T16:05:43;10.90;99.90
19862;DHT22;10093;48.148;8.542;2022-11-02T16:08:23;10.80;99.90
19862;DHT22;10093;48.148;8.542;2022-11-02T16:10:49;10.60;99.90
19862;DHT22;10093;48.148;8.542;2022-11-02T16:13:18;10.30;99.90
19862;DHT22;10093;48.148;8.542;2022-11-02T16:15:46;10.00;99.90
19862;DHT22;10093;48.148;8.542;2022-11-02T16:18:34;9.80;99.90
19862;DHT22;10093;48.148;8.542;2022-11-02T16:21:02;9.50;99.90
19862;DHT22;10093;48.148;8.542;2022-11-02T16:23:34;9.30;99.90
19862;DHT22;10093;48.148;8.542;2022-11-02T16:26:03;9.10;99.90
19862;DHT22;10093;48.148;8.542;2022-11-02T16:28:31;8.90;99.90
19862;DHT22;10093;48.148;8.542;2022-11-02T16:33:42;8.50;99.90
19862;DHT22;10093;48.148;8.542;2022-11-02T16:36:09;8.30;99.90
19862;DHT22;10093;48.148;8.542;2022-11-02T16:38:37;8.20;99.90
19862;DHT22;10093;48.148;8.542;2022-11-02T16:41:06;8.10;99.90
19862;DHT22;10093;48.148;8.542;2022-11-02T16:43:34;8.00;99.90
19862;DHT22;10093;48.148;8.542;2022-11-02T16:46:02;8.10;99.90
19862;DHT22;10093;48.148;8.542;2022-11-02T16:48:32;8.20;99.90
19862;DHT22;10093;48.148;8.542;2022-11-02T16:51:19;8.10;99.90
19862;DHT22;10093;48.148;8.542;2022-11-02T16:53:44;7.90;99.90
19862;DHT22;10093;48.148;8.542;2022-11-02T16:56:27;7.90;99.90
19862;DHT22;10093;48.148;8.542;2022-11-02T16:59:04;7.60;99.90
19862;DHT22;10093;48.148;8.542;2022-11-02T17:01:38;7.40;99.90
19862;DHT22;10093;48.148;8.542;2022-11-02T17:04:22;7.30;99.90
19862;DHT22;10093;48.148;8.542;2022-11-02T17:06:51;7.20;99.90
19862;DHT22;10093;48.148;8.542;2022-11-02T17:09:31;7.20;99.90
19862;DHT22;10093;48.148;8.542;2022-11-02T17:12:14;7.30;99.90
19862;DHT22;10093;48.148;8.542;2022-11-02T17:14:46;7.30;99.90
19862;DHT22;10093;48.148;8.542;2022-11-02T17:17:35;7.10;99.90
19862;DHT22;10093;48.148;8.542;2022-11-02T17:27:51;7.20;99.90
19862;DHT22;10093;48.148;8.542;2022-11-02T17:35:47;6.80;99.90
19862;DHT22;10093;48.148;8.542;2022-11-02T17:38:13;6.70;99.90
19862;DHT22;10093;48.148;8.542;2022-11-02T17:40:40;6.50;99.90
19862;DHT22;10093;48.148;8.542;2022-11-02T17:43:05;6.40;99.90
19862;DHT22;10093;48.148;8.542;2022-11-02T17:45:36;6.30;99.90
19862;DHT22;10093;48.148;8.542;2022-11-02T17:48:03;6.20;99.90
19862;DHT22;10093;48.148;8.542;2022-11-02T17:50:31;6.20;99.90
19862;DHT22;10093;48.148;8.542;2022-11-02T17:52:58;6.40;99.90
19862;DHT22;10093;48.148;8.542;2022-11-02T17:55:26;6.20;99.90
19862;DHT22;10093;48.148;8.542;2022-11-02T17:57:53;6.00;99.90
19862;DHT22;10093;48.148;8.542;2022-11-02T18:00:19;5.90;99.90
19862;DHT22;10093;48.148;8.542;2022-11-02T18:02:50;5.80;99.90
19862;DHT22;10093;48.148;8.542;2022-11-02T18:07:52;5.90;99.90
19862;DHT22;10093;48.148;8.542;2022-11-02T18:10:20;5.90;99.90
19862;DHT22;10093;48.148;8.542;2022-11-02T18:12:46;6.10;99.90
19862;DHT22;10093;48.148;8.542;2022-11-02T18:15:23;6.00;99.90
19862;DHT22;10093;48.148;8.542;2022-11-02T18:17:48;5.90;99.90
19862;DHT22;10093;48.148;8.542;2022-11-02T18:20:18;5.70;99.90
19862;DHT22;10093;48.148;8.542;2022-11-02T18:22:44;5.80;99.90
19862;DHT22;10093;48.148;8.542;2022-11-02T18:25:12;6.20;99.90
19862;DHT22;10093;48.148;8.542;2022-11-02T18:27:39;6.30;99.90
19862;DHT22;10093;48.148;8.542;2022-11-02T18:30:06;6.30;99.90
19862;DHT22;10093;48.148;8.542;2022-11-02T18:32:36;6.10;99.90
19862;DHT22;10093;48.148;8.542;2022-11-02T18:35:02;5.80;99.90
19862;DHT22;10093;48.148;8.542;2022-11-02T18:37:28;5.90;99.90
19862;DHT22;10093;48.148;8.542;2022-11-02T18:39:54;5.80;99.90
19862;DHT22;10093;48.148;8.542;2022-11-02T18:42:20;6.00;99.90
19862;DHT22;10093;48.148;8.542;2022-11-02T18:44:45;6.10;99.90